sensor_id;sensor_type;location;lat;lon;timestamp;P1;durP1;ratioP1;P2;durP2;ratioP2
14550;SDS011;7362;50.956;4.184;2022-11-15T00:00:26;15.65;;;12.65;;
14550;SDS011;7362;50.956;4.184;2022-11-15T00:02:58;14.48;;;12.30;;
14550;SDS011;7362;50.956;4.184;2022-11-15T00:05:34;15.88;;;12.80;;
14550;SDS011;7362;50.956;4.184;2022-11-15T00:08:04;15.95;;;13.38;;
14550;SDS011;7362;50.956;4.184;2022-11-15T00:10:59;17.02;;;12.68;;
14550;SDS011;7362;50.956;4.184;2022-11-15T00:13:27;20.20;;;13.45;;
14550;SDS011;7362;50.956;4.184;2022-11-15T00:15:56;16.33;;;12.65;;
14550;SDS011;7362;50.956;4.184;2022-11-15T00:18:23;16.60;;;12.70;;
14550;SDS011;7362;50.956;4.184;2022-11-15T00:20:52;16.52;;;13.15;;
14550;SDS011;7362;50.956;4.184;2022-11-15T00:23:50;16.80;;;13.05;;
14550;SDS011;7362;50.956;4.184;2022-11-15T00:35:39;17.25;;;13.20;;
14550;SDS011;7362;50.956;4.184;2022-11-15T00:38:05;16.52;;;13.05;;
14550;SDS011;7362;50.956;4.184;2022-11-15T00:40:33;20.35;;;14.35;;
14550;SDS011;7362;50.956;4.184;2022-11-15T00:42:59;20.95;;;14.38;;
14550;SDS011;7362;50.956;4.184;2022-11-15T00:45:25;20.83;;;13.45;;
14550;SDS011;7362;50.956;4.184;2022-11-15T00:47:56;18.92;;;13.65;;
14550;SDS011;7362;50.956;4.184;2022-11-15T00:50:25;18.83;;;13.75;;
14550;SDS011;7362;50.956;4.184;2022-11-15T00:52:53;19.92;;;13.88;;
14550;SDS011;7362;50.956;4.184;2022-11-15T00:55:19;17.38;;;13.60;;
14550;SDS011;7362;50.956;4.184;2022-11-15T00:57:45;20.80;;;13.35;;
14550;SDS011;7362;50.956;4.184;2022-11-15T01:00:13;17.48;;;13.23;;
14550;SDS011;7362;50.956;4.184;2022-11-15T01:03:04;21.95;;;13.15;;
14550;SDS011;7362;50.956;4.184;2022-11-15T01:06:00;20.25;;;13.55;;
14550;SDS011;7362;50.956;4.184;2022-11-15T01:08:27;17.33;;;13.65;;
14550;SDS011;7362;50.956;4.184;2022-11-15T01:10:54;19.02;;;14.75;;
14550;SDS011;7362;50.956;4.184;2022-11-15T01:13:19;23.40;;;14.80;;
14550;SDS011;7362;50.956;4.184;2022-11-15T01:15:47;17.98;;;14.65;;
14550;SDS011;7362;50.956;4.184;2022-11-15T01:18:14;19.98;;;14.27;;
14550;SDS011;7362;50.956;4.184;2022-11-15T01:20:41;18.92;;;14.85;;
14550;SDS011;7362;50.956;4.184;2022-11-15T01:23:08;18.48;;;14.38;;
14550;SDS011;7362;50.956;4.184;2022-11-15T01:25:39;18.55;;;14.27;;
14550;SDS011;7362;50.956;4.184;2022-11-15T01:28:05;19.45;;;14.23;;
14550;SDS011;7362;50.956;4.184;2022-11-15T01:33:04;17.58;;;13.75;;
14550;SDS011;7362;50.956;4.184;2022-11-15T01:35:38;19.50;;;13.85;;
14550;SDS011;7362;50.956;4.184;2022-11-15T01:38:09;17.52;;;14.20;;
14550;SDS011;7362;50.956;4.184;2022-11-15T01:40:38;20.42;;;13.65;;
14550;SDS011;7362;50.956;4.184;2022-11-15T01:48:59;17.45;;;13.15;;
14550;SDS011;7362;50.956;4.184;2022-11-15T01:51:31;17.98;;;13.25;;
14550;SDS011;7362;50.956;4.184;2022-11-15T01:54:14;16.17;;;12.18;;
14550;SDS011;7362;50.956;4.184;2022-11-15T01:56:47;15.63;;;11.63;;
14550;SDS011;7362;50.956;4.184;2022-11-15T01:59:18;15.57;;;12.07;;
14550;SDS011;7362;50.956;4.184;2022-11-15T02:01:48;18.00;;;11.68;;
14550;SDS011;7362;50.956;4.184;2022-11-15T02:08:12;16.15;;;11.57;;
14550;SDS011;7362;50.956;4.184;2022-11-15T02:10:46;15.50;;;11.10;;
14550;SDS011;7362;50.956;4.184;2022-11-15T02:13:13;16.80;;;11.32;;
14550;SDS011;7362;50.956;4.184;2022-11-15T02:18:40;14.80;;;11.75;;
14550;SDS011;7362;50.956;4.184;2022-11-15T02:21:21;12.32;;;11.02;;
14550;SDS011;7362;50.956;4.184;2022-11-15T02:32:48;16.85;;;12.52;;
14550;SDS011;7362;50.956;4.184;2022-11-15T02:38:08;14.70;;;11.15;;
14550;SDS011;7362;50.956;4.184;2022-11-15T02:40:52;14.02;;;11.90;;
14550;SDS011;7362;50.956;4.184;2022-11-15T02:43:36;17.67;;;10.80;;
14550;SDS011;7362;50.956;4.184;2022-11-15T02:46:29;13.85;;;11.20;;
14550;SDS011;7362;50.956;4.184;2022-11-15T02:49:31;14.75;;;11.65;;
14550;SDS011;7362;50.956;4.184;2022-11-15T02:51:59;15.85;;;10.60;;
14550;SDS011;7362;50.956;4.184;2022-11-15T02:54:28;15.55;;;10.15;;
14550;SDS011;7362;50.956;4.184;2022-11-15T02:56:58;16.13;;;10.32;;
14550;SDS011;7362;50.956;4.184;2022-11-15T03:00:01;13.90;;;10.40;;
14550;SDS011;7362;50.956;4.184;2022-11-15T03:02:48;17.58;;;11.18;;
14550;SDS011;7362;50.956;4.184;2022-11-15T03:06:11;17.27;;;10.27;;
14550;SDS011;7362;50.956;4.184;2022-11-15T03:09:06;10.90;;;8.65;;
14550;SDS011;7362;50.956;4.184;2022-11-15T03:15:00;14.65;;;8.85;;
14550;SDS011;7362;50.956;4.184;2022-11-15T03:17:38;10.85;;;7.88;;
14550;SDS011;7362;50.956;4.184;2022-11-15T03:20:13;11.40;;;8.05;;
14550;SDS011;7362;50.956;4.184;2022-11-15T03:22:42;13.85;;;8.52;;
14550;SDS011;7362;50.956;4.184;2022-11-15T03:25:11;14.10;;;8.10;;
14550;SDS011;7362;50.956;4.184;2022-11-15T03:27:43;9.15;;;7.82;;
14550;SDS011;7362;50.956;4.184;2022-11-15T03:30:13;10.25;;;7.57;;
14550;SDS011;7362;50.956;4.184;2022-11-15T03:32:44;9.25;;;6.55;;
14550;SDS011;7362;50.956;4.184;2022-11-15T03:35:23;10.13;;;7.15;;
14550;SDS011;7362;50.956;4.184;2022-11-15T03:40:42;11.57;;;6.97;;
14550;SDS011;7362;50.956;4.184;2022-11-15T03:46:31;12.02;;;6.30;;
14550;SDS011;7362;50.956;4.184;2022-11-15T03:49:36;13.52;;;6.38;;
14550;SDS011;7362;50.956;4.184;2022-11-15T03:51:58;10.43;;;6.47;;
14550;SDS011;7362;50.956;4.184;2022-11-15T03:54:25;9.93;;;6.72;;
14550;SDS011;7362;50.956;4.184;2022-11-15T03:56:50;8.98;;;5.97;;
14550;SDS011;7362;50.956;4.184;2022-11-15T03:59:16;10.82;;;6.22;;
14550;SDS011;7362;50.956;4.184;2022-11-15T04:01:43;7.55;;;5.20;;
14550;SDS011;7362;50.956;4.184;2022-11-15T04:04:09;10.18;;;6.03;;
14550;SDS011;7362;50.956;4.184;2022-11-15T04:06:35;10.90;;;6.13;;
14550;SDS011;7362;50.956;4.184;2022-11-15T04:09:01;9.50;;;6.03;;
14550;SDS011;7362;50.956;4.184;2022-11-15T04:11:26;7.72;;;5.40;;
14550;SDS011;7362;50.956;4.184;2022-11-15T04:13:52;7.72;;;5.55;;
14550;SDS011;7362;50.956;4.184;2022-11-15T04:16:20;6.55;;;5.22;;
14550;SDS011;7362;50.956;4.184;2022-11-15T04:18:47;10.05;;;5.15;;
14550;SDS011;7362;50.956;4.184;2022-11-15T04:21:35;9.68;;;7.38;;
14550;SDS011;7362;50.956;4.184;2022-11-15T04:24:22;7.65;;;4.97;;
14550;SDS011;7362;50.956;4.184;2022-11-15T04:26:49;8.60;;;5.38;;
14550;SDS011;7362;50.956;4.184;2022-11-15T04:29:14;7.90;;;4.95;;
14550;SDS011;7362;50.956;4.184;2022-11-15T04:31:58;8.18;;;4.75;;
14550;SDS011;7362;50.956;4.184;2022-11-15T04:34:25;11.02;;;5.60;;
14550;SDS011;7362;50.956;4.184;2022-11-15T04:36:51;10.50;;;4.78;;
14550;SDS011;7362;50.956;4.184;2022-11-15T04:39:35;9.50;;;4.75;;
14550;SDS011;7362;50.956;4.184;2022-11-15T04:42:03;11.82;;;5.32;;
14550;SDS011;7362;50.956;4.184;2022-11-15T04:44:30;7.53;;;5.30;;
14550;SDS011;7362;50.956;4.184;2022-11-15T04:46:56;7.90;;;4.67;;
14550;SDS011;7362;50.956;4.184;2022-11-15T04:49:22;9.57;;;4.70;;
14550;SDS011;7362;50.956;4.184;2022-11-15T04:51:49;8.87;;;4.50;;
14550;SDS011;7362;50.956;4.184;2022-11-15T04:54:15;9.57;;;4.55;;
14550;SDS011;7362;50.956;4.184;2022-11-15T04:56:44;6.33;;;4.50;;
14550;SDS011;7362;50.956;4.184;2022-11-15T04:59:13;8.50;;;4.82;;
14550;SDS011;7362;50.956;4.184;2022-11-15T05:01:38;7.47;;;3.97;;
14550;SDS011;7362;50.956;4.184;2022-11-15T05:04:07;15.98;;;5.50;;
14550;SDS011;7362;50.956;4.184;2022-11-15T05:06:54;9.35;;;4.40;;
14550;SDS011;7362;50.956;4.184;2022-11-15T05:09:21;6.10;;;4.17;;
14550;SDS011;7362;50.956;4.184;2022-11-15T05:11:52;7.57;;;4.60;;
14550;SDS011;7362;50.956;4.184;2022-11-15T05:14:19;8.38;;;4.18;;
14550;SDS011;7362;50.956;4.184;2022-11-15T05:16:55;6.53;;;4.03;;
14550;SDS011;7362;50.956;4.184;2022-11-15T05:19:25;7.35;;;4.15;;
14550;SDS011;7362;50.956;4.184;2022-11-15T05:21:56;8.40;;;3.23;;
14550;SDS011;7362;50.956;4.184;2022-11-15T05:24:21;6.10;;;3.67;;
14550;SDS011;7362;50.956;4.184;2022-11-15T05:26:49;8.33;;;3.30;;
14550;SDS011;7362;50.956;4.184;2022-11-15T05:29:21;4.27;;;2.80;;
14550;SDS011;7362;50.956;4.184;2022-11-15T05:31:49;9.07;;;4.20;;
14550;SDS011;7362;50.956;4.184;2022-11-15T05:34:15;6.40;;;3.30;;
14550;SDS011;7362;50.956;4.184;2022-11-15T05:43:05;7.67;;;3.50;;
14550;SDS011;7362;50.956;4.184;2022-11-15T05:45:32;7.47;;;3.47;;
14550;SDS011;7362;50.956;4.184;2022-11-15T05:48:03;5.90;;;3.10;;
14550;SDS011;7362;50.956;4.184;2022-11-15T05:50:38;8.00;;;2.80;;
14550;SDS011;7362;50.956;4.184;2022-11-15T05:53:11;6.97;;;3.10;;
14550;SDS011;7362;50.956;4.184;2022-11-15T05:55:52;7.43;;;3.37;;
14550;SDS011;7362;50.956;4.184;2022-11-15T05:58:24;5.80;;;3.17;;
14550;SDS011;7362;50.956;4.184;2022-11-15T06:00:49;8.07;;;3.43;;
14550;SDS011;7362;50.956;4.184;2022-11-15T06:03:16;5.47;;;3.17;;
14550;SDS011;7362;50.956;4.184;2022-11-15T06:05:44;8.10;;;3.37;;
14550;SDS011;7362;50.956;4.184;2022-11-15T06:08:12;7.03;;;3.77;;
14550;SDS011;7362;50.956;4.184;2022-11-15T06:10:39;5.30;;;3.97;;
14550;SDS011;7362;50.956;4.184;2022-11-15T06:13:04;7.55;;;3.35;;
14550;SDS011;7362;50.956;4.184;2022-11-15T06:15:31;7.00;;;3.40;;
14550;SDS011;7362;50.956;4.184;2022-11-15T06:17:59;7.47;;;3.20;;
14550;SDS011;7362;50.956;4.184;2022-11-15T06:20:27;11.53;;;3.83;;
14550;SDS011;7362;50.956;4.184;2022-11-15T06:22:57;8.00;;;3.33;;
14550;SDS011;7362;50.956;4.184;2022-11-15T06:28:23;7.70;;;3.27;;
14550;SDS011;7362;50.956;4.184;2022-11-15T06:33:59;5.17;;;3.53;;
14550;SDS011;7362;50.956;4.184;2022-11-15T06:36:42;4.53;;;2.83;;
14550;SDS011;7362;50.956;4.184;2022-11-15T06:47:46;5.23;;;3.03;;
14550;SDS011;7362;50.956;4.184;2022-11-15T06:50:14;6.93;;;3.07;;
14550;SDS011;7362;50.956;4.184;2022-11-15T06:52:44;5.13;;;3.40;;
14550;SDS011;7362;50.956;4.184;2022-11-15T06:55:16;6.63;;;3.53;;
14550;SDS011;7362;50.956;4.184;2022-11-15T06:57:48;7.70;;;3.00;;
14550;SDS011;7362;50.956;4.184;2022-11-15T07:00:18;5.70;;;3.00;;
14550;SDS011;7362;50.956;4.184;2022-11-15T07:02:50;5.10;;;3.10;;
14550;SDS011;7362;50.956;4.184;2022-11-15T07:05:36;4.23;;;2.83;;
14550;SDS011;7362;50.956;4.184;2022-11-15T07:08:08;4.77;;;3.17;;
14550;SDS011;7362;50.956;4.184;2022-11-15T07:10:35;6.37;;;3.43;;
14550;SDS011;7362;50.956;4.184;2022-11-15T07:13:03;6.10;;;3.63;;
14550;SDS011;7362;50.956;4.184;2022-11-15T07:15:32;5.57;;;3.03;;
14550;SDS011;7362;50.956;4.184;2022-11-15T07:18:07;5.07;;;3.03;;
14550;SDS011;7362;50.956;4.184;2022-11-15T07:20:33;6.07;;;3.00;;
14550;SDS011;7362;50.956;4.184;2022-11-15T07:23:02;4.67;;;3.27;;
14550;SDS011;7362;50.956;4.184;2022-11-15T07:25:33;5.50;;;2.70;;
14550;SDS011;7362;50.956;4.184;2022-11-15T07:28:17;6.43;;;3.37;;
14550;SDS011;7362;50.956;4.184;2022-11-15T07:36:05;6.70;;;3.37;;
14550;SDS011;7362;50.956;4.184;2022-11-15T07:38:40;7.53;;;3.00;;
14550;SDS011;7362;50.956;4.184;2022-11-15T07:41:11;6.53;;;3.07;;
14550;SDS011;7362;50.956;4.184;2022-11-15T07:43:39;7.40;;;2.80;;
14550;SDS011;7362;50.956;4.184;2022-11-15T07:46:46;6.63;;;3.20;;
14550;SDS011;7362;50.956;4.184;2022-11-15T07:52:46;5.50;;;2.67;;
14550;SDS011;7362;50.956;4.184;2022-11-15T07:58:48;5.77;;;2.63;;
14550;SDS011;7362;50.956;4.184;2022-11-15T08:04:47;5.50;;;2.77;;
14550;SDS011;7362;50.956;4.184;2022-11-15T08:11:11;6.23;;;2.97;;
14550;SDS011;7362;50.956;4.184;2022-11-15T08:17:07;7.20;;;2.97;;
14550;SDS011;7362;50.956;4.184;2022-11-15T08:22:58;5.90;;;2.93;;
14550;SDS011;7362;50.956;4.184;2022-11-15T08:28:48;4.33;;;2.47;;
14550;SDS011;7362;50.956;4.184;2022-11-15T08:31:17;5.13;;;2.40;;
14550;SDS011;7362;50.956;4.184;2022-11-15T08:33:44;3.23;;;1.90;;
14550;SDS011;7362;50.956;4.184;2022-11-15T08:36:15;4.67;;;1.83;;
14550;SDS011;7362;50.956;4.184;2022-11-15T08:38:47;4.27;;;1.90;;
14550;SDS011;7362;50.956;4.184;2022-11-15T08:41:24;3.40;;;1.73;;
14550;SDS011;7362;50.956;4.184;2022-11-15T08:44:01;5.10;;;1.97;;
14550;SDS011;7362;50.956;4.184;2022-11-15T08:46:28;6.53;;;2.10;;
14550;SDS011;7362;50.956;4.184;2022-11-15T08:48:57;4.80;;;2.00;;
14550;SDS011;7362;50.956;4.184;2022-11-15T08:51:36;4.10;;;1.87;;
14550;SDS011;7362;50.956;4.184;2022-11-15T08:54:04;5.30;;;1.90;;
14550;SDS011;7362;50.956;4.184;2022-11-15T08:56:30;2.13;;;1.60;;
14550;SDS011;7362;50.956;4.184;2022-11-15T08:58:57;5.70;;;1.60;;
14550;SDS011;7362;50.956;4.184;2022-11-15T09:01:23;7.13;;;1.73;;
14550;SDS011;7362;50.956;4.184;2022-11-15T09:03:48;4.90;;;2.20;;
14550;SDS011;7362;50.956;4.184;2022-11-15T09:06:15;4.80;;;1.93;;
14550;SDS011;7362;50.956;4.184;2022-11-15T09:08:57;4.73;;;1.90;;
14550;SDS011;7362;50.956;4.184;2022-11-15T09:11:24;5.43;;;1.33;;
14550;SDS011;7362;50.956;4.184;2022-11-15T09:13:51;4.20;;;2.00;;
14550;SDS011;7362;50.956;4.184;2022-11-15T09:16:19;5.72;;;1.60;;
14550;SDS011;7362;50.956;4.184;2022-11-15T09:24:35;5.47;;;1.70;;
14550;SDS011;7362;50.956;4.184;2022-11-15T09:27:04;7.53;;;1.73;;
14550;SDS011;7362;50.956;4.184;2022-11-15T09:29:37;9.33;;;1.87;;
14550;SDS011;7362;50.956;4.184;2022-11-15T09:32:05;4.60;;;1.67;;
14550;SDS011;7362;50.956;4.184;2022-11-15T09:34:50;8.93;;;3.07;;
14550;SDS011;7362;50.956;4.184;2022-11-15T09:37:16;2.37;;;1.70;;
14550;SDS011;7362;50.956;4.184;2022-11-15T09:39:42;2.53;;;1.27;;
14550;SDS011;7362;50.956;4.184;2022-11-15T09:53:34;7.00;;;1.70;;
14550;SDS011;7362;50.956;4.184;2022-11-15T09:56:38;7.55;;;2.42;;
14550;SDS011;7362;50.956;4.184;2022-11-15T10:02:17;9.25;;;2.13;;
14550;SDS011;7362;50.956;4.184;2022-11-15T10:05:03;4.33;;;1.60;;
14550;SDS011;7362;50.956;4.184;2022-11-15T10:10:56;6.80;;;1.60;;
14550;SDS011;7362;50.956;4.184;2022-11-15T10:13:26;2.15;;;1.05;;
14550;SDS011;7362;50.956;4.184;2022-11-15T10:21:40;3.90;;;1.17;;
14550;SDS011;7362;50.956;4.184;2022-11-15T10:24:28;3.92;;;1.23;;
14550;SDS011;7362;50.956;4.184;2022-11-15T10:27:07;4.28;;;1.30;;
14550;SDS011;7362;50.956;4.184;2022-11-15T10:29:49;8.32;;;1.90;;
14550;SDS011;7362;50.956;4.184;2022-11-15T10:32:19;3.63;;;1.25;;
14550;SDS011;7362;50.956;4.184;2022-11-15T10:34:52;6.90;;;1.23;;
14550;SDS011;7362;50.956;4.184;2022-11-15T10:37:29;2.33;;;1.17;;
14550;SDS011;7362;50.956;4.184;2022-11-15T10:43:04;2.13;;;0.93;;
14550;SDS011;7362;50.956;4.184;2022-11-15T10:45:37;3.58;;;1.05;;
14550;SDS011;7362;50.956;4.184;2022-11-15T10:50:38;4.30;;;1.30;;
14550;SDS011;7362;50.956;4.184;2022-11-15T10:53:15;2.97;;;0.80;;
14550;SDS011;7362;50.956;4.184;2022-11-15T10:55:53;5.38;;;0.98;;
14550;SDS011;7362;50.956;4.184;2022-11-15T10:58:41;3.38;;;1.05;;
14550;SDS011;7362;50.956;4.184;2022-11-15T11:03:35;3.90;;;0.85;;
14550;SDS011;7362;50.956;4.184;2022-11-15T11:06:16;6.25;;;1.40;;
14550;SDS011;7362;50.956;4.184;2022-11-15T11:11:49;5.05;;;1.20;;
14550;SDS011;7362;50.956;4.184;2022-11-15T11:14:24;6.65;;;1.75;;
14550;SDS011;7362;50.956;4.184;2022-11-15T11:17:02;2.90;;;0.98;;
14550;SDS011;7362;50.956;4.184;2022-11-15T11:20:01;3.30;;;1.13;;
14550;SDS011;7362;50.956;4.184;2022-11-15T11:34:59;2.83;;;1.30;;
14550;SDS011;7362;50.956;4.184;2022-11-15T11:40:24;3.65;;;1.10;;
14550;SDS011;7362;50.956;4.184;2022-11-15T11:42:58;3.53;;;1.02;;
14550;SDS011;7362;50.956;4.184;2022-11-15T11:52:26;2.45;;;1.00;;
14550;SDS011;7362;50.956;4.184;2022-11-15T11:58:17;3.38;;;1.42;;
14550;SDS011;7362;50.956;4.184;2022-11-15T12:01:10;2.78;;;0.90;;
14550;SDS011;7362;50.956;4.184;2022-11-15T12:04:03;5.35;;;1.17;;
14550;SDS011;7362;50.956;4.184;2022-11-15T12:06:48;4.45;;;1.40;;
14550;SDS011;7362;50.956;4.184;2022-11-15T12:09:21;2.70;;;1.23;;
14550;SDS011;7362;50.956;4.184;2022-11-15T12:14:53;4.00;;;1.45;;
14550;SDS011;7362;50.956;4.184;2022-11-15T12:17:23;4.32;;;1.30;;
14550;SDS011;7362;50.956;4.184;2022-11-15T12:20:37;1.80;;;0.90;;
14550;SDS011;7362;50.956;4.184;2022-11-15T12:25:44;4.85;;;1.30;;
14550;SDS011;7362;50.956;4.184;2022-11-15T12:31:48;3.60;;;1.20;;
14550;SDS011;7362;50.956;4.184;2022-11-15T12:34:36;2.53;;;0.90;;
14550;SDS011;7362;50.956;4.184;2022-11-15T12:53:20;6.05;;;0.93;;
14550;SDS011;7362;50.956;4.184;2022-11-15T13:02:45;6.95;;;1.10;;
14550;SDS011;7362;50.956;4.184;2022-11-15T13:08:42;3.28;;;0.90;;
14550;SDS011;7362;50.956;4.184;2022-11-15T13:20:52;4.95;;;1.45;;
14550;SDS011;7362;50.956;4.184;2022-11-15T13:23:17;2.45;;;1.00;;
14550;SDS011;7362;50.956;4.184;2022-11-15T13:30:49;5.15;;;1.10;;
14550;SDS011;7362;50.956;4.184;2022-11-15T13:33:57;3.80;;;1.08;;
14550;SDS011;7362;50.956;4.184;2022-11-15T13:36:24;3.13;;;1.27;;
14550;SDS011;7362;50.956;4.184;2022-11-15T13:39:03;3.15;;;1.30;;
14550;SDS011;7362;50.956;4.184;2022-11-15T13:41:47;5.18;;;1.00;;
14550;SDS011;7362;50.956;4.184;2022-11-15T13:44:28;4.40;;;1.48;;
14550;SDS011;7362;50.956;4.184;2022-11-15T13:47:16;2.50;;;1.45;;
14550;SDS011;7362;50.956;4.184;2022-11-15T13:49:46;3.38;;;1.17;;
14550;SDS011;7362;50.956;4.184;2022-11-15T13:52:15;3.80;;;0.98;;
14550;SDS011;7362;50.956;4.184;2022-11-15T13:54:44;2.88;;;1.20;;
14550;SDS011;7362;50.956;4.184;2022-11-15T13:57:23;7.63;;;1.30;;
14550;SDS011;7362;50.956;4.184;2022-11-15T13:59:55;4.35;;;1.38;;
14550;SDS011;7362;50.956;4.184;2022-11-15T14:02:33;4.40;;;1.42;;
14550;SDS011;7362;50.956;4.184;2022-11-15T14:05:22;4.57;;;1.40;;
14550;SDS011;7362;50.956;4.184;2022-11-15T14:07:56;2.05;;;0.90;;
14550;SDS011;7362;50.956;4.184;2022-11-15T14:13:36;2.97;;;1.35;;
14550;SDS011;7362;50.956;4.184;2022-11-15T14:19:06;2.83;;;1.13;;
14550;SDS011;7362;50.956;4.184;2022-11-15T14:24:40;5.57;;;1.45;;
14550;SDS011;7362;50.956;4.184;2022-11-15T14:31:00;2.60;;;1.10;;
14550;SDS011;7362;50.956;4.184;2022-11-15T14:36:14;1.55;;;1.20;;
14550;SDS011;7362;50.956;4.184;2022-11-15T14:38:45;3.17;;;1.30;;
14550;SDS011;7362;50.956;4.184;2022-11-15T14:44:04;1.90;;;1.20;;
14550;SDS011;7362;50.956;4.184;2022-11-15T14:46:39;4.30;;;1.50;;
14550;SDS011;7362;50.956;4.184;2022-11-15T14:49:14;4.28;;;1.38;;
14550;SDS011;7362;50.956;4.184;2022-11-15T14:51:43;3.80;;;1.10;;
14550;SDS011;7362;50.956;4.184;2022-11-15T14:54:12;3.53;;;1.23;;
14550;SDS011;7362;50.956;4.184;2022-11-15T14:57:03;3.35;;;1.30;;
14550;SDS011;7362;50.956;4.184;2022-11-15T14:59:54;3.08;;;1.00;;
14550;SDS011;7362;50.956;4.184;2022-11-15T15:02:21;1.92;;;1.10;;
14550;SDS011;7362;50.956;4.184;2022-11-15T15:05:08;2.15;;;1.00;;
14550;SDS011;7362;50.956;4.184;2022-11-15T15:10:41;3.00;;;1.15;;
14550;SDS011;7362;50.956;4.184;2022-11-15T15:13:23;1.85;;;1.10;;
14550;SDS011;7362;50.956;4.184;2022-11-15T15:15:55;3.22;;;1.40;;
14550;SDS011;7362;50.956;4.184;2022-11-15T15:18:35;2.15;;;1.65;;
14550;SDS011;7362;50.956;4.184;2022-11-15T15:21:23;2.08;;;1.48;;
14550;SDS011;7362;50.956;4.184;2022-11-15T15:23:52;3.05;;;1.00;;
14550;SDS011;7362;50.956;4.184;2022-11-15T15:26:24;2.53;;;1.27;;
14550;SDS011;7362;50.956;4.184;2022-11-15T15:28:51;1.77;;;1.08;;
14550;SDS011;7362;50.956;4.184;2022-11-15T15:31:23;2.00;;;1.17;;
14550;SDS011;7362;50.956;4.184;2022-11-15T15:33:57;6.63;;;1.65;;
14550;SDS011;7362;50.956;4.184;2022-11-15T15:36:32;1.67;;;1.27;;
14550;SDS011;7362;50.956;4.184;2022-11-15T15:39:43;2.33;;;1.40;;
14550;SDS011;7362;50.956;4.184;2022-11-15T15:42:09;3.13;;;1.42;;
14550;SDS011;7362;50.956;4.184;2022-11-15T15:44:36;2.95;;;1.67;;
14550;SDS011;7362;50.956;4.184;2022-11-15T15:47:03;2.90;;;1.40;;
14550;SDS011;7362;50.956;4.184;2022-11-15T15:49:42;2.10;;;1.40;;
14550;SDS011;7362;50.956;4.184;2022-11-15T15:52:10;3.60;;;1.70;;
14550;SDS011;7362;50.956;4.184;2022-11-15T15:54:41;5.00;;;1.70;;
14550;SDS011;7362;50.956;4.184;2022-11-15T15:57:08;2.42;;;1.65;;
14550;SDS011;7362;50.956;4.184;2022-11-15T15:59:42;2.70;;;1.52;;
14550;SDS011;7362;50.956;4.184;2022-11-15T16:02:11;2.63;;;1.92;;
14550;SDS011;7362;50.956;4.184;2022-11-15T16:04:38;2.53;;;1.60;;
14550;SDS011;7362;50.956;4.184;2022-11-15T16:07:03;3.92;;;1.67;;
14550;SDS011;7362;50.956;4.184;2022-11-15T16:09:29;3.63;;;2.00;;
14550;SDS011;7362;50.956;4.184;2022-11-15T16:12:15;6.25;;;2.20;;
14550;SDS011;7362;50.956;4.184;2022-11-15T16:14:50;4.35;;;2.00;;
14550;SDS011;7362;50.956;4.184;2022-11-15T16:17:21;2.63;;;1.80;;
14550;SDS011;7362;50.956;4.184;2022-11-15T16:19:57;3.22;;;2.10;;
14550;SDS011;7362;50.956;4.184;2022-11-15T16:22:26;4.45;;;2.10;;
14550;SDS011;7362;50.956;4.184;2022-11-15T16:24:54;4.95;;;3.15;;
14550;SDS011;7362;50.956;4.184;2022-11-15T16:27:20;2.97;;;2.13;;
14550;SDS011;7362;50.956;4.184;2022-11-15T16:29:48;3.08;;;1.80;;
14550;SDS011;7362;50.956;4.184;2022-11-15T16:32:18;2.67;;;1.88;;
14550;SDS011;7362;50.956;4.184;2022-11-15T16:34:45;3.28;;;1.90;;
14550;SDS011;7362;50.956;4.184;2022-11-15T16:39:59;9.07;;;7.25;;
14550;SDS011;7362;50.956;4.184;2022-11-15T16:42:30;5.97;;;3.58;;
14550;SDS011;7362;50.956;4.184;2022-11-15T16:48:22;4.50;;;2.60;;
14550;SDS011;7362;50.956;4.184;2022-11-15T16:51:09;4.28;;;2.88;;
14550;SDS011;7362;50.956;4.184;2022-11-15T16:54:25;3.63;;;2.55;;
14550;SDS011;7362;50.956;4.184;2022-11-15T16:59:41;2.95;;;2.30;;
14550;SDS011;7362;50.956;4.184;2022-11-15T17:04:49;3.08;;;2.25;;
14550;SDS011;7362;50.956;4.184;2022-11-15T17:07:39;4.60;;;2.28;;
14550;SDS011;7362;50.956;4.184;2022-11-15T17:10:05;2.72;;;1.92;;
14550;SDS011;7362;50.956;4.184;2022-11-15T17:12:35;4.80;;;1.98;;
14550;SDS011;7362;50.956;4.184;2022-11-15T17:15:05;2.90;;;2.10;;
14550;SDS011;7362;50.956;4.184;2022-11-15T17:17:31;3.80;;;2.67;;
14550;SDS011;7362;50.956;4.184;2022-11-15T17:19:59;3.75;;;2.58;;
14550;SDS011;7362;50.956;4.184;2022-11-15T17:22:28;7.97;;;2.78;;
14550;SDS011;7362;50.956;4.184;2022-11-15T17:24:57;3.28;;;2.50;;
14550;SDS011;7362;50.956;4.184;2022-11-15T17:27:24;4.57;;;2.00;;
14550;SDS011;7362;50.956;4.184;2022-11-15T17:30:00;4.22;;;2.20;;
14550;SDS011;7362;50.956;4.184;2022-11-15T17:32:26;3.45;;;2.58;;
14550;SDS011;7362;50.956;4.184;2022-11-15T17:34:53;3.92;;;2.30;;
14550;SDS011;7362;50.956;4.184;2022-11-15T17:39:51;3.85;;;2.78;;
14550;SDS011;7362;50.956;4.184;2022-11-15T17:42:17;2.95;;;2.42;;
14550;SDS011;7362;50.956;4.184;2022-11-15T17:44:44;4.07;;;2.63;;
14550;SDS011;7362;50.956;4.184;2022-11-15T17:47:10;4.03;;;2.78;;
14550;SDS011;7362;50.956;4.184;2022-11-15T17:49:36;5.15;;;2.53;;
14550;SDS011;7362;50.956;4.184;2022-11-15T17:52:06;3.83;;;2.80;;
14550;SDS011;7362;50.956;4.184;2022-11-15T17:54:35;3.90;;;2.75;;
14550;SDS011;7362;50.956;4.184;2022-11-15T17:57:06;4.97;;;2.90;;
14550;SDS011;7362;50.956;4.184;2022-11-15T17:59:32;4.80;;;2.83;;
14550;SDS011;7362;50.956;4.184;2022-11-15T18:02:00;4.05;;;2.67;;
14550;SDS011;7362;50.956;4.184;2022-11-15T18:04:30;4.45;;;2.80;;
14550;SDS011;7362;50.956;4.184;2022-11-15T18:09:27;4.30;;;3.28;;
14550;SDS011;7362;50.956;4.184;2022-11-15T18:11:57;4.28;;;2.97;;
14550;SDS011;7362;50.956;4.184;2022-11-15T18:14:28;4.90;;;3.50;;
14550;SDS011;7362;50.956;4.184;2022-11-15T18:16:53;4.22;;;3.10;;
14550;SDS011;7362;50.956;4.184;2022-11-15T18:19:19;4.43;;;3.10;;
14550;SDS011;7362;50.956;4.184;2022-11-15T18:21:48;4.68;;;3.15;;
14550;SDS011;7362;50.956;4.184;2022-11-15T18:24:32;4.43;;;2.65;;
14550;SDS011;7362;50.956;4.184;2022-11-15T18:27:03;4.72;;;3.60;;
14550;SDS011;7362;50.956;4.184;2022-11-15T18:29:30;8.75;;;3.33;;
14550;SDS011;7362;50.956;4.184;2022-11-15T18:31:57;5.95;;;3.90;;
14550;SDS011;7362;50.956;4.184;2022-11-15T18:34:24;3.78;;;3.13;;
14550;SDS011;7362;50.956;4.184;2022-11-15T18:36:53;4.25;;;3.00;;
14550;SDS011;7362;50.956;4.184;2022-11-15T18:39:20;4.50;;;3.17;;
14550;SDS011;7362;50.956;4.184;2022-11-15T18:44:18;4.53;;;3.00;;
14550;SDS011;7362;50.956;4.184;2022-11-15T18:46:48;6.97;;;3.50;;
14550;SDS011;7362;50.956;4.184;2022-11-15T18:49:20;4.43;;;3.22;;
14550;SDS011;7362;50.956;4.184;2022-11-15T18:51:50;7.25;;;3.50;;
14550;SDS011;7362;50.956;4.184;2022-11-15T18:54:17;4.35;;;3.40;;
14550;SDS011;7362;50.956;4.184;2022-11-15T18:56:48;5.88;;;4.18;;
14550;SDS011;7362;50.956;4.184;2022-11-15T19:02:10;4.68;;;3.85;;
14550;SDS011;7362;50.956;4.184;2022-11-15T19:04:38;4.43;;;3.47;;
14550;SDS011;7362;50.956;4.184;2022-11-15T19:07:27;4.68;;;3.22;;
14550;SDS011;7362;50.956;4.184;2022-11-15T19:09:53;4.05;;;3.40;;
14550;SDS011;7362;50.956;4.184;2022-11-15T19:12:21;5.53;;;3.45;;
14550;SDS011;7362;50.956;4.184;2022-11-15T19:14:50;4.35;;;3.25;;
14550;SDS011;7362;50.956;4.184;2022-11-15T19:19:59;7.28;;;4.40;;
14550;SDS011;7362;50.956;4.184;2022-11-15T19:24:54;6.53;;;4.40;;
14550;SDS011;7362;50.956;4.184;2022-11-15T19:27:21;5.80;;;4.32;;
14550;SDS011;7362;50.956;4.184;2022-11-15T19:29:56;5.35;;;4.45;;
14550;SDS011;7362;50.956;4.184;2022-11-15T19:32:38;4.50;;;4.00;;
14550;SDS011;7362;50.956;4.184;2022-11-15T19:35:06;5.95;;;4.35;;
14550;SDS011;7362;50.956;4.184;2022-11-15T19:37:33;6.38;;;3.67;;
14550;SDS011;7362;50.956;4.184;2022-11-15T19:40:02;5.43;;;3.88;;
14550;SDS011;7362;50.956;4.184;2022-11-15T19:42:35;5.35;;;4.15;;
14550;SDS011;7362;50.956;4.184;2022-11-15T19:45:02;8.98;;;3.70;;
14550;SDS011;7362;50.956;4.184;2022-11-15T19:47:34;4.80;;;3.88;;
14550;SDS011;7362;50.956;4.184;2022-11-15T19:53:11;5.50;;;4.00;;